sensor_id;sensor_type;location;lat;lon;timestamp;pressure;altitude;pressure_sealevel;temperature;humidity
52591;BME280;38483;42.620;25.394;2023-02-28T00:01:21;97547.81;;;12.00;73.08
52591;BME280;38483;42.620;25.394;2023-02-28T00:03:49;97536.84;;;11.93;72.83
52591;BME280;38483;42.620;25.394;2023-02-28T00:06:16;97552.75;;;12.06;72.81
52591;BME280;38483;42.620;25.394;2023-02-28T00:08:43;97553.16;;;11.97;72.28
52591;BME280;38483;42.620;25.394;2023-02-28T00:11:13;97558.34;;;11.97;73.17
52591;BME280;38483;42.620;25.394;2023-02-28T00:13:42;97554.72;;;12.01;72.51
52591;BME280;38483;42.620;25.394;2023-02-28T00:16:12;97547.97;;;11.97;72.11
52591;BME280;38483;42.620;25.394;2023-02-28T00:18:40;97556.41;;;11.82;73.25
52591;BME280;38483;42.620;25.394;2023-02-28T00:21:07;97546.16;;;11.99;72.81
52591;BME280;38483;42.620;25.394;2023-02-28T00:23:35;97551.97;;;11.84;72.93
52591;BME280;38483;42.620;25.394;2023-02-28T00:26:02;97564.06;;;11.85;73.09
52591;BME280;38483;42.620;25.394;2023-02-28T00:28:29;97563.50;;;11.77;73.55
52591;BME280;38483;42.620;25.394;2023-02-28T00:30:58;97564.00;;;11.86;72.99
52591;BME280;38483;42.620;25.394;2023-02-28T00:33:28;97525.84;;;11.68;73.64
52591;BME280;38483;42.620;25.394;2023-02-28T00:36:07;97559.38;;;11.73;73.87
52591;BME280;38483;42.620;25.394;2023-02-28T00:38:36;97555.50;;;11.61;73.91
52591;BME280;38483;42.620;25.394;2023-02-28T00:41:03;97554.66;;;11.61;74.62
52591;BME280;38483;42.620;25.394;2023-02-28T00:43:34;97556.22;;;11.86;73.14
52591;BME280;38483;42.620;25.394;2023-02-28T00:46:03;97546.19;;;11.77;72.87
52591;BME280;38483;42.620;25.394;2023-02-28T00:48:30;97553.84;;;11.60;74.05
52591;BME280;38483;42.620;25.394;2023-02-28T00:50:57;97537.97;;;11.68;73.11
52591;BME280;38483;42.620;25.394;2023-02-28T00:53:24;97542.81;;;11.75;73.21
52591;BME280;38483;42.620;25.394;2023-02-28T00:55:51;97532.84;;;11.66;73.30
52591;BME280;38483;42.620;25.394;2023-02-28T00:58:18;97543.31;;;11.63;73.26
52591;BME280;38483;42.620;25.394;2023-02-28T01:00:46;97549.56;;;11.79;73.05
52591;BME280;38483;42.620;25.394;2023-02-28T01:03:17;97560.28;;;11.72;73.62
52591;BME280;38483;42.620;25.394;2023-02-28T01:05:45;97551.19;;;11.82;73.61
52591;BME280;38483;42.620;25.394;2023-02-28T01:08:13;97558.03;;;11.63;73.78
52591;BME280;38483;42.620;25.394;2023-02-28T01:10:41;97565.97;;;11.60;74.44
52591;BME280;38483;42.620;25.394;2023-02-28T01:13:08;97544.34;;;11.59;73.79
52591;BME280;38483;42.620;25.394;2023-02-28T01:15:37;97545.56;;;11.72;73.12
52591;BME280;38483;42.620;25.394;2023-02-28T01:18:04;97540.28;;;11.54;73.71
52591;BME280;38483;42.620;25.394;2023-02-28T01:20:31;97561.13;;;11.72;73.38
52591;BME280;38483;42.620;25.394;2023-02-28T01:22:58;97557.00;;;11.68;73.85
52591;BME280;38483;42.620;25.394;2023-02-28T01:25:26;97560.00;;;11.58;74.18
52591;BME280;38483;42.620;25.394;2023-02-28T01:27:53;97559.78;;;11.20;75.05
52591;BME280;38483;42.620;25.394;2023-02-28T01:30:20;97570.03;;;11.45;74.76
52591;BME280;38483;42.620;25.394;2023-02-28T01:32:47;97566.13;;;11.35;74.59
52591;BME280;38483;42.620;25.394;2023-02-28T01:35:14;97576.53;;;11.33;75.24
52591;BME280;38483;42.620;25.394;2023-02-28T01:37:41;97572.81;;;11.19;75.24
52591;BME280;38483;42.620;25.394;2023-02-28T01:40:08;97580.47;;;11.22;75.82
52591;BME280;38483;42.620;25.394;2023-02-28T01:42:35;97574.31;;;11.24;75.61
52591;BME280;38483;42.620;25.394;2023-02-28T01:48:05;97569.13;;;11.24;75.50
52591;BME280;38483;42.620;25.394;2023-02-28T01:50:36;97591.38;;;11.30;75.76
52591;BME280;38483;42.620;25.394;2023-02-28T01:53:08;97605.38;;;11.26;75.50
52591;BME280;38483;42.620;25.394;2023-02-28T01:55:37;97605.13;;;11.10;76.18
52591;BME280;38483;42.620;25.394;2023-02-28T01:58:05;97600.28;;;11.01;76.20
52591;BME280;38483;42.620;25.394;2023-02-28T02:00:34;97617.88;;;11.15;76.38
52591;BME280;38483;42.620;25.394;2023-02-28T02:03:07;97608.53;;;11.11;76.81
52591;BME280;38483;42.620;25.394;2023-02-28T02:05:38;97584.03;;;10.75;77.81
52591;BME280;38483;42.620;25.394;2023-02-28T02:08:12;97602.78;;;11.04;77.08
52591;BME280;38483;42.620;25.394;2023-02-28T02:10:49;97613.94;;;11.06;76.39
52591;BME280;38483;42.620;25.394;2023-02-28T02:25:46;97622.06;;;10.74;78.43
52591;BME280;38483;42.620;25.394;2023-02-28T02:28:35;97625.25;;;10.81;78.73
52591;BME280;38483;42.620;25.394;2023-02-28T02:34:24;97628.47;;;10.87;78.83
52591;BME280;38483;42.620;25.394;2023-02-28T02:45:05;97616.66;;;10.57;79.55
52591;BME280;38483;42.620;25.394;2023-02-28T02:47:35;97627.59;;;10.65;79.64
52591;BME280;38483;42.620;25.394;2023-02-28T02:50:07;97621.44;;;10.68;79.19
52591;BME280;38483;42.620;25.394;2023-02-28T02:52:39;97619.97;;;10.60;79.73
52591;BME280;38483;42.620;25.394;2023-02-28T02:55:12;97625.63;;;10.48;80.31
52591;BME280;38483;42.620;25.394;2023-02-28T02:57:47;97624.91;;;10.43;80.30
52591;BME280;38483;42.620;25.394;2023-02-28T03:00:19;97639.84;;;10.60;79.93
52591;BME280;38483;42.620;25.394;2023-02-28T03:02:52;97635.50;;;10.37;80.75
52591;BME280;38483;42.620;25.394;2023-02-28T03:05:27;97639.94;;;10.34;81.54
52591;BME280;38483;42.620;25.394;2023-02-28T03:07:56;97654.34;;;10.16;82.67
52591;BME280;38483;42.620;25.394;2023-02-28T03:10:38;97646.44;;;10.21;82.56
52591;BME280;38483;42.620;25.394;2023-02-28T03:13:12;97657.34;;;10.30;82.77
52591;BME280;38483;42.620;25.394;2023-02-28T03:26:54;97654.00;;;10.27;82.70
52591;BME280;38483;42.620;25.394;2023-02-28T03:29:33;97637.88;;;10.19;82.84
52591;BME280;38483;42.620;25.394;2023-02-28T03:32:08;97652.16;;;10.30;82.70
52591;BME280;38483;42.620;25.394;2023-02-28T03:34:50;97650.53;;;10.26;83.17
52591;BME280;38483;42.620;25.394;2023-02-28T03:37:22;97655.84;;;10.23;83.23
52591;BME280;38483;42.620;25.394;2023-02-28T03:40:19;97666.03;;;10.28;82.85
52591;BME280;38483;42.620;25.394;2023-02-28T03:42:49;97668.28;;;10.14;83.17
52591;BME280;38483;42.620;25.394;2023-02-28T03:45:21;97670.72;;;10.17;83.06
52591;BME280;38483;42.620;25.394;2023-02-28T03:47:57;97684.16;;;10.28;83.18
52591;BME280;38483;42.620;25.394;2023-02-28T03:53:11;97667.81;;;10.00;83.60
52591;BME280;38483;42.620;25.394;2023-02-28T03:55:45;97682.53;;;9.99;83.80
52591;BME280;38483;42.620;25.394;2023-02-28T03:58:30;97691.56;;;10.14;83.53
52591;BME280;38483;42.620;25.394;2023-02-28T04:01:07;97688.72;;;9.95;84.41
52591;BME280;38483;42.620;25.394;2023-02-28T04:03:37;97695.81;;;9.89;85.35
52591;BME280;38483;42.620;25.394;2023-02-28T04:06:06;97689.72;;;9.63;86.63
52591;BME280;38483;42.620;25.394;2023-02-28T04:08:34;97687.75;;;9.44;87.50
52591;BME280;38483;42.620;25.394;2023-02-28T04:11:13;97688.72;;;9.41;87.50
52591;BME280;38483;42.620;25.394;2023-02-28T04:13:43;97694.38;;;9.52;86.77
52591;BME280;38483;42.620;25.394;2023-02-28T04:16:13;97694.56;;;9.74;86.17
52591;BME280;38483;42.620;25.394;2023-02-28T04:18:58;97683.16;;;9.53;86.14
52591;BME280;38483;42.620;25.394;2023-02-28T04:21:45;97700.06;;;9.63;86.02
52591;BME280;38483;42.620;25.394;2023-02-28T04:24:14;97706.31;;;9.56;86.42
52591;BME280;38483;42.620;25.394;2023-02-28T04:26:45;97705.44;;;9.57;85.65
52591;BME280;38483;42.620;25.394;2023-02-28T04:29:14;97708.72;;;9.35;87.04
52591;BME280;38483;42.620;25.394;2023-02-28T04:31:44;97703.31;;;9.15;87.89
52591;BME280;38483;42.620;25.394;2023-02-28T04:34:11;97701.09;;;9.30;87.65
52591;BME280;38483;42.620;25.394;2023-02-28T04:36:38;97703.50;;;9.36;87.23
52591;BME280;38483;42.620;25.394;2023-02-28T04:39:05;97709.28;;;9.44;86.89
52591;BME280;38483;42.620;25.394;2023-02-28T04:41:32;97719.00;;;9.36;87.36
52591;BME280;38483;42.620;25.394;2023-02-28T04:43:59;97708.19;;;9.24;87.35
52591;BME280;38483;42.620;25.394;2023-02-28T04:46:28;97714.72;;;9.08;88.25
52591;BME280;38483;42.620;25.394;2023-02-28T04:48:54;97716.97;;;9.18;88.61
52591;BME280;38483;42.620;25.394;2023-02-28T04:51:22;97719.38;;;8.95;88.73
52591;BME280;38483;42.620;25.394;2023-02-28T04:53:50;97722.09;;;8.90;88.73
52591;BME280;38483;42.620;25.394;2023-02-28T04:56:18;97712.59;;;8.91;89.65
52591;BME280;38483;42.620;25.394;2023-02-28T04:58:45;97724.13;;;9.10;89.55
52591;BME280;38483;42.620;25.394;2023-02-28T05:01:23;97716.19;;;9.16;88.45
52591;BME280;38483;42.620;25.394;2023-02-28T05:03:51;97717.41;;;9.03;89.39
52591;BME280;38483;42.620;25.394;2023-02-28T05:06:19;97712.78;;;8.85;89.42
52591;BME280;38483;42.620;25.394;2023-02-28T05:08:47;97715.84;;;8.68;90.98
52591;BME280;38483;42.620;25.394;2023-02-28T05:11:20;97720.66;;;8.80;90.66
52591;BME280;38483;42.620;25.394;2023-02-28T05:13:49;97723.38;;;9.05;90.03
52591;BME280;38483;42.620;25.394;2023-02-28T05:16:16;97712.69;;;9.17;88.84
52591;BME280;38483;42.620;25.394;2023-02-28T05:18:47;97720.00;;;9.32;87.82
52591;BME280;38483;42.620;25.394;2023-02-28T05:23:53;97717.41;;;9.05;89.46
52591;BME280;38483;42.620;25.394;2023-02-28T05:26:20;97737.47;;;9.24;88.25
52591;BME280;38483;42.620;25.394;2023-02-28T05:28:47;97733.22;;;9.22;88.40
52591;BME280;38483;42.620;25.394;2023-02-28T05:31:15;97739.00;;;9.31;87.85
52591;BME280;38483;42.620;25.394;2023-02-28T05:33:42;97747.44;;;9.36;87.70
52591;BME280;38483;42.620;25.394;2023-02-28T05:36:09;97756.53;;;9.20;87.88
52591;BME280;38483;42.620;25.394;2023-02-28T05:38:36;97754.41;;;9.34;87.72
52591;BME280;38483;42.620;25.394;2023-02-28T05:41:06;97762.38;;;9.27;87.29
52591;BME280;38483;42.620;25.394;2023-02-28T05:43:34;97760.47;;;9.33;86.94
52591;BME280;38483;42.620;25.394;2023-02-28T05:46:06;97770.34;;;9.19;87.92
52591;BME280;38483;42.620;25.394;2023-02-28T05:48:37;97780.94;;;9.10;88.55
52591;BME280;38483;42.620;25.394;2023-02-28T05:51:08;97769.09;;;9.03;88.19
52591;BME280;38483;42.620;25.394;2023-02-28T05:53:36;97771.50;;;9.09;88.84
52591;BME280;38483;42.620;25.394;2023-02-28T05:56:03;97779.94;;;8.85;88.28
52591;BME280;38483;42.620;25.394;2023-02-28T05:58:32;97776.31;;;8.90;89.16
52591;BME280;38483;42.620;25.394;2023-02-28T06:01:00;97781.94;;;9.06;87.62
52591;BME280;38483;42.620;25.394;2023-02-28T06:03:27;97780.59;;;9.22;87.29
52591;BME280;38483;42.620;25.394;2023-02-28T06:05:54;97781.59;;;8.87;88.56
52591;BME280;38483;42.620;25.394;2023-02-28T06:08:21;97779.69;;;8.94;88.10
52591;BME280;38483;42.620;25.394;2023-02-28T06:10:48;97777.00;;;8.97;87.50
52591;BME280;38483;42.620;25.394;2023-02-28T06:13:15;97772.13;;;8.88;88.59
52591;BME280;38483;42.620;25.394;2023-02-28T06:15:42;97772.88;;;8.91;87.60
52591;BME280;38483;42.620;25.394;2023-02-28T06:18:09;97775.97;;;9.04;87.81
52591;BME280;38483;42.620;25.394;2023-02-28T06:20:36;97782.22;;;9.26;86.64
52591;BME280;38483;42.620;25.394;2023-02-28T06:23:03;97777.16;;;9.23;86.74
52591;BME280;38483;42.620;25.394;2023-02-28T06:25:30;97785.22;;;9.40;85.71
52591;BME280;38483;42.620;25.394;2023-02-28T06:27:57;97777.53;;;9.39;85.53
52591;BME280;38483;42.620;25.394;2023-02-28T06:30:24;97773.06;;;9.15;86.68
52591;BME280;38483;42.620;25.394;2023-02-28T06:32:54;97792.13;;;9.41;86.43
52591;BME280;38483;42.620;25.394;2023-02-28T06:35:22;97789.66;;;9.37;85.77
52591;BME280;38483;42.620;25.394;2023-02-28T06:37:49;97792.66;;;9.23;86.36
52591;BME280;38483;42.620;25.394;2023-02-28T06:40:16;97802.72;;;9.32;86.32
52591;BME280;38483;42.620;25.394;2023-02-28T06:42:43;97800.84;;;9.37;85.73
52591;BME280;38483;42.620;25.394;2023-02-28T06:45:10;97800.53;;;9.19;86.36
52591;BME280;38483;42.620;25.394;2023-02-28T06:47:39;97782.56;;;9.14;86.56
52591;BME280;38483;42.620;25.394;2023-02-28T06:50:09;97776.94;;;9.00;86.79
52591;BME280;38483;42.620;25.394;2023-02-28T06:52:36;97785.38;;;9.05;86.80
52591;BME280;38483;42.620;25.394;2023-02-28T06:55:06;97783.66;;;8.75;87.33
52591;BME280;38483;42.620;25.394;2023-02-28T06:57:34;97730.41;;;8.71;86.88
52591;BME280;38483;42.620;25.394;2023-02-28T07:00:08;97783.38;;;9.16;85.68
52591;BME280;38483;42.620;25.394;2023-02-28T07:02:37;97791.19;;;9.13;85.67
52591;BME280;38483;42.620;25.394;2023-02-28T07:05:05;97798.63;;;9.25;84.28
52591;BME280;38483;42.620;25.394;2023-02-28T07:07:32;97805.97;;;9.39;83.72
52591;BME280;38483;42.620;25.394;2023-02-28T07:10:00;97786.16;;;9.09;84.51
52591;BME280;38483;42.620;25.394;2023-02-28T07:12:27;97808.06;;;9.26;83.89
52591;BME280;38483;42.620;25.394;2023-02-28T07:14:54;97811.44;;;9.28;83.32
52591;BME280;38483;42.620;25.394;2023-02-28T07:17:22;97787.94;;;9.36;82.22
52591;BME280;38483;42.620;25.394;2023-02-28T07:19:49;97791.75;;;9.53;81.48
52591;BME280;38483;42.620;25.394;2023-02-28T07:22:16;97810.41;;;9.63;81.34
52591;BME280;38483;42.620;25.394;2023-02-28T07:24:43;97820.06;;;9.58;80.76
52591;BME280;38483;42.620;25.394;2023-02-28T07:27:10;97811.50;;;9.56;80.83
52591;BME280;38483;42.620;25.394;2023-02-28T07:29:37;97813.06;;;9.61;80.80
52591;BME280;38483;42.620;25.394;2023-02-28T07:32:04;97809.31;;;9.42;80.75
52591;BME280;38483;42.620;25.394;2023-02-28T07:34:32;97783.81;;;9.59;80.10
52591;BME280;38483;42.620;25.394;2023-02-28T07:36:59;97802.72;;;9.61;79.59
52591;BME280;38483;42.620;25.394;2023-02-28T07:39:26;97810.72;;;9.81;79.02
52591;BME280;38483;42.620;25.394;2023-02-28T07:41:53;97817.72;;;9.78;78.77
52591;BME280;38483;42.620;25.394;2023-02-28T07:44:26;97814.94;;;9.84;78.99
52591;BME280;38483;42.620;25.394;2023-02-28T07:46:53;97824.25;;;9.90;78.69
52591;BME280;38483;42.620;25.394;2023-02-28T07:49:20;97815.91;;;9.52;79.95
52591;BME280;38483;42.620;25.394;2023-02-28T07:51:47;97812.31;;;9.56;80.11
52591;BME280;38483;42.620;25.394;2023-02-28T07:54:14;97810.53;;;9.60;80.39
52591;BME280;38483;42.620;25.394;2023-02-28T07:56:41;97827.22;;;9.77;80.29
52591;BME280;38483;42.620;25.394;2023-02-28T07:59:08;97813.59;;;9.72;80.37
52591;BME280;38483;42.620;25.394;2023-02-28T08:01:36;97806.34;;;9.83;80.04
52591;BME280;38483;42.620;25.394;2023-02-28T08:04:03;97831.50;;;9.78;81.00
52591;BME280;38483;42.620;25.394;2023-02-28T08:06:30;97823.50;;;9.29;81.85
52591;BME280;38483;42.620;25.394;2023-02-28T08:08:57;97826.53;;;9.43;82.18
52591;BME280;38483;42.620;25.394;2023-02-28T08:11:24;97824.31;;;9.59;80.92
52591;BME280;38483;42.620;25.394;2023-02-28T08:13:51;97822.50;;;9.62;81.10
52591;BME280;38483;42.620;25.394;2023-02-28T08:16:18;97825.19;;;9.59;80.90
52591;BME280;38483;42.620;25.394;2023-02-28T08:18:52;97825.22;;;9.58;80.79
52591;BME280;38483;42.620;25.394;2023-02-28T08:21:20;97820.09;;;9.56;80.56
52591;BME280;38483;42.620;25.394;2023-02-28T08:23:48;97829.13;;;9.71;80.29
52591;BME280;38483;42.620;25.394;2023-02-28T08:26:17;97825.06;;;9.62;80.40
52591;BME280;38483;42.620;25.394;2023-02-28T08:28:44;97825.81;;;9.67;80.57
52591;BME280;38483;42.620;25.394;2023-02-28T08:31:13;97822.66;;;9.56;81.04
52591;BME280;38483;42.620;25.394;2023-02-28T08:33:42;97813.66;;;9.69;80.75
52591;BME280;38483;42.620;25.394;2023-02-28T08:36:09;97811.72;;;9.48;81.77
52591;BME280;38483;42.620;25.394;2023-02-28T08:38:37;97768.41;;;9.27;81.49
52591;BME280;38483;42.620;25.394;2023-02-28T08:41:07;97826.22;;;9.54;81.53
52591;BME280;38483;42.620;25.394;2023-02-28T08:43:35;97828.03;;;9.50;82.76
52591;BME280;38483;42.620;25.394;2023-02-28T08:46:03;97831.97;;;9.63;81.98
52591;BME280;38483;42.620;25.394;2023-02-28T08:48:33;97830.22;;;9.64;82.00
52591;BME280;38483;42.620;25.394;2023-02-28T08:51:07;97830.78;;;9.73;81.67
52591;BME280;38483;42.620;25.394;2023-02-28T08:53:37;97845.75;;;9.64;81.95
52591;BME280;38483;42.620;25.394;2023-02-28T08:56:07;97850.78;;;9.68;81.56
52591;BME280;38483;42.620;25.394;2023-02-28T08:58:35;97849.50;;;9.81;81.05
52591;BME280;38483;42.620;25.394;2023-02-28T09:01:28;97850.09;;;9.62;82.05
52591;BME280;38483;42.620;25.394;2023-02-28T09:03:57;97843.09;;;9.65;81.74
52591;BME280;38483;42.620;25.394;2023-02-28T09:06:26;97840.03;;;9.53;82.02
52591;BME280;38483;42.620;25.394;2023-02-28T09:08:57;97837.56;;;9.77;82.12
52591;BME280;38483;42.620;25.394;2023-02-28T09:11:28;97849.50;;;9.81;81.70
52591;BME280;38483;42.620;25.394;2023-02-28T09:13:55;97839.16;;;9.81;80.99
52591;BME280;38483;42.620;25.394;2023-02-28T09:16:22;97855.53;;;10.11;80.83
52591;BME280;38483;42.620;25.394;2023-02-28T09:18:49;97854.63;;;10.12;80.51
52591;BME280;38483;42.620;25.394;2023-02-28T09:21:18;97855.03;;;9.99;80.90
52591;BME280;38483;42.620;25.394;2023-02-28T09:23:47;97841.84;;;9.78;81.46
52591;BME280;38483;42.620;25.394;2023-02-28T09:26:17;97853.13;;;9.76;81.83
52591;BME280;38483;42.620;25.394;2023-02-28T09:28:45;97842.88;;;9.73;81.60
52591;BME280;38483;42.620;25.394;2023-02-28T09:31:15;97857.28;;;9.81;81.51
52591;BME280;38483;42.620;25.394;2023-02-28T09:33:42;97849.25;;;9.91;81.42
52591;BME280;38483;42.620;25.394;2023-02-28T09:36:09;97858.19;;;10.08;80.78
52591;BME280;38483;42.620;25.394;2023-02-28T09:38:37;97858.13;;;10.11;80.53
52591;BME280;38483;42.620;25.394;2023-02-28T09:41:12;97848.63;;;10.12;80.67
52591;BME280;38483;42.620;25.394;2023-02-28T09:43:44;97857.59;;;10.28;79.50
52591;BME280;38483;42.620;25.394;2023-02-28T09:48:50;97850.03;;;9.93;80.99
52591;BME280;38483;42.620;25.394;2023-02-28T09:53:47;97834.22;;;10.02;80.25
52591;BME280;38483;42.620;25.394;2023-02-28T09:56:28;97830.53;;;9.82;81.06
52591;BME280;38483;42.620;25.394;2023-02-28T10:06:52;97827.03;;;9.83;80.28
52591;BME280;38483;42.620;25.394;2023-02-28T10:09:26;97825.34;;;9.53;82.13
52591;BME280;38483;42.620;25.394;2023-02-28T10:12:01;97818.41;;;9.55;82.31
52591;BME280;38483;42.620;25.394;2023-02-28T10:14:33;97829.41;;;9.33;82.98
52591;BME280;38483;42.620;25.394;2023-02-28T10:17:11;97809.97;;;9.49;82.48
52591;BME280;38483;42.620;25.394;2023-02-28T10:19:47;97820.63;;;9.67;82.02
52591;BME280;38483;42.620;25.394;2023-02-28T10:24:49;97811.03;;;9.71;81.38
52591;BME280;38483;42.620;25.394;2023-02-28T10:27:23;97813.66;;;9.69;81.39
52591;BME280;38483;42.620;25.394;2023-02-28T10:29:53;97794.03;;;9.64;81.83
52591;BME280;38483;42.620;25.394;2023-02-28T10:32:24;97802.09;;;9.81;81.51
52591;BME280;38483;42.620;25.394;2023-02-28T10:35:14;97796.59;;;9.92;81.78
52591;BME280;38483;42.620;25.394;2023-02-28T10:37:47;97777.72;;;9.60;82.16
52591;BME280;38483;42.620;25.394;2023-02-28T10:43:02;97773.34;;;9.62;82.22
52591;BME280;38483;42.620;25.394;2023-02-28T10:45:31;97779.63;;;9.55;83.21
52591;BME280;38483;42.620;25.394;2023-02-28T10:50:35;97775.47;;;9.77;82.55
52591;BME280;38483;42.620;25.394;2023-02-28T10:53:30;97768.00;;;9.96;81.64
52591;BME280;38483;42.620;25.394;2023-02-28T11:01:27;97762.41;;;10.36;80.52
52591;BME280;38483;42.620;25.394;2023-02-28T11:04:01;97740.66;;;9.89;81.90
52591;BME280;38483;42.620;25.394;2023-02-28T11:06:33;97757.50;;;10.01;81.91
52591;BME280;38483;42.620;25.394;2023-02-28T11:09:04;97747.00;;;10.05;82.09
52591;BME280;38483;42.620;25.394;2023-02-28T11:11:43;97759.91;;;10.07;81.53
52591;BME280;38483;42.620;25.394;2023-02-28T11:14:42;97752.19;;;10.05;81.48
52591;BME280;38483;42.620;25.394;2023-02-28T11:17:25;97753.22;;;10.27;81.01
52591;BME280;38483;42.620;25.394;2023-02-28T11:19:56;97745.59;;;10.23;80.63
52591;BME280;38483;42.620;25.394;2023-02-28T11:22:27;97739.41;;;10.27;80.37
52591;BME280;38483;42.620;25.394;2023-02-28T11:24:58;97721.69;;;10.15;79.80
52591;BME280;38483;42.620;25.394;2023-02-28T11:29:58;97746.44;;;9.96;81.40
52591;BME280;38483;42.620;25.394;2023-02-28T11:32:28;97735.81;;;9.78;82.32
52591;BME280;38483;42.620;25.394;2023-02-28T11:35:10;97740.28;;;10.00;81.53
52591;BME280;38483;42.620;25.394;2023-02-28T11:37:39;97730.69;;;10.03;81.09
52591;BME280;38483;42.620;25.394;2023-02-28T11:40:18;97728.91;;;10.31;80.77
52591;BME280;38483;42.620;25.394;2023-02-28T11:43:32;97718.56;;;10.05;80.12
52591;BME280;38483;42.620;25.394;2023-02-28T11:46:39;97727.06;;;10.09;79.96
52591;BME280;38483;42.620;25.394;2023-02-28T11:58:05;97733.72;;;9.90;80.31
52591;BME280;38483;42.620;25.394;2023-02-28T12:03:57;97708.97;;;9.81;80.34
52591;BME280;38483;42.620;25.394;2023-02-28T12:09:03;97728.75;;;10.10;79.36
52591;BME280;38483;42.620;25.394;2023-02-28T12:11:52;97730.84;;;9.99;79.68
52591;BME280;38483;42.620;25.394;2023-02-28T12:27:17;97721.56;;;9.92;80.34
52591;BME280;38483;42.620;25.394;2023-02-28T12:30:14;97689.59;;;9.68;80.50
52591;BME280;38483;42.620;25.394;2023-02-28T12:32:47;97720.75;;;9.91;81.11
52591;BME280;38483;42.620;25.394;2023-02-28T12:35:21;97730.19;;;9.92;80.99
52591;BME280;38483;42.620;25.394;2023-02-28T12:37:57;97728.66;;;9.87;81.40
52591;BME280;38483;42.620;25.394;2023-02-28T12:40:56;97731.50;;;9.77;81.89
52591;BME280;38483;42.620;25.394;2023-02-28T12:43:30;97723.66;;;9.53;81.97
52591;BME280;38483;42.620;25.394;2023-02-28T12:46:04;97685.00;;;9.22;82.87
52591;BME280;38483;42.620;25.394;2023-02-28T12:48:42;97736.84;;;9.45;83.22
52591;BME280;38483;42.620;25.394;2023-02-28T12:51:10;97725.03;;;9.08;83.44
52591;BME280;38483;42.620;25.394;2023-02-28T12:59:07;97737.41;;;9.55;83.01
52591;BME280;38483;42.620;25.394;2023-02-28T13:01:51;97730.94;;;9.40;82.31
52591;BME280;38483;42.620;25.394;2023-02-28T13:07:19;97735.31;;;9.38;82.31
52591;BME280;38483;42.620;25.394;2023-02-28T13:09:57;97710.75;;;9.25;82.56
52591;BME280;38483;42.620;25.394;2023-02-28T13:12:26;97712.47;;;9.25;83.03
52591;BME280;38483;42.620;25.394;2023-02-28T13:15:24;97715.81;;;9.28;82.74
52591;BME280;38483;42.620;25.394;2023-02-28T13:17:54;97720.78;;;9.34;82.68
52591;BME280;38483;42.620;25.394;2023-02-28T13:20:25;97717.28;;;9.37;82.99
52591;BME280;38483;42.620;25.394;2023-02-28T13:22:56;97713.16;;;9.31;82.92
52591;BME280;38483;42.620;25.394;2023-02-28T13:28:01;97725.72;;;9.42;82.72
52591;BME280;38483;42.620;25.394;2023-02-28T13:33:24;97720.22;;;9.54;82.46
52591;BME280;38483;42.620;25.394;2023-02-28T13:38:52;97708.84;;;9.30;83.62
52591;BME280;38483;42.620;25.394;2023-02-28T13:44:23;97716.34;;;9.39;83.53
52591;BME280;38483;42.620;25.394;2023-02-28T13:51:53;97705.66;;;8.93;84.77
52591;BME280;38483;42.620;25.394;2023-02-28T13:54:31;97711.09;;;8.84;85.80
52591;BME280;38483;42.620;25.394;2023-02-28T14:05:46;97695.69;;;9.10;86.32
52591;BME280;38483;42.620;25.394;2023-02-28T14:08:20;97695.50;;;9.16;86.01
52591;BME280;38483;42.620;25.394;2023-02-28T14:10:51;97688.78;;;9.11;85.80
52591;BME280;38483;42.620;25.394;2023-02-28T14:13:42;97700.94;;;9.07;85.93
52591;BME280;38483;42.620;25.394;2023-02-28T14:16:21;97693.53;;;8.95;86.42
52591;BME280;38483;42.620;25.394;2023-02-28T14:19:01;97712.16;;;8.46;87.99
52591;BME280;38483;42.620;25.394;2023-02-28T14:21:32;97700.22;;;8.42;88.96
52591;BME280;38483;42.620;25.394;2023-02-28T14:27:08;97702.06;;;8.68;88.86
52591;BME280;38483;42.620;25.394;2023-02-28T14:35:09;97703.88;;;8.95;86.92
52591;BME280;38483;42.620;25.394;2023-02-28T14:37:41;97720.69;;;8.79;87.49
52591;BME280;38483;42.620;25.394;2023-02-28T14:40:19;97708.41;;;8.87;87.65
52591;BME280;38483;42.620;25.394;2023-02-28T14:42:55;97714.44;;;8.87;88.27
52591;BME280;38483;42.620;25.394;2023-02-28T14:45:32;97714.22;;;8.64;89.07
52591;BME280;38483;42.620;25.394;2023-02-28T14:48:01;97729.03;;;8.58;89.62
52591;BME280;38483;42.620;25.394;2023-02-28T14:50:31;97720.16;;;8.36;91.07
52591;BME280;38483;42.620;25.394;2023-02-28T14:53:06;97722.19;;;8.57;90.19
52591;BME280;38483;42.620;25.394;2023-02-28T14:55:46;97708.53;;;8.52;90.41
52591;BME280;38483;42.620;25.394;2023-02-28T14:58:40;97716.91;;;8.60;91.14
52591;BME280;38483;42.620;25.394;2023-02-28T15:01:10;97700.16;;;8.44;91.53
52591;BME280;38483;42.620;25.394;2023-02-28T15:03:38;97718.81;;;8.55;91.18
52591;BME280;38483;42.620;25.394;2023-02-28T15:06:17;97722.41;;;8.48;91.78
52591;BME280;38483;42.620;25.394;2023-02-28T15:08:45;97719.56;;;8.58;91.84
52591;BME280;38483;42.620;25.394;2023-02-28T15:11:17;97711.28;;;8.46;91.39
52591;BME280;38483;42.620;25.394;2023-02-28T15:13:53;97725.03;;;8.12;91.67
52591;BME280;38483;42.620;25.394;2023-02-28T15:16:29;97721.25;;;8.27;92.79
52591;BME280;38483;42.620;25.394;2023-02-28T15:19:00;97724.88;;;8.18;92.69
52591;BME280;38483;42.620;25.394;2023-02-28T15:21:33;97728.41;;;8.16;91.96
52591;BME280;38483;42.620;25.394;2023-02-28T15:26:41;97721.03;;;8.35;91.61
52591;BME280;38483;42.620;25.394;2023-02-28T15:29:17;97720.81;;;8.44;90.06
52591;BME280;38483;42.620;25.394;2023-02-28T15:31:49;97720.13;;;8.37;90.17
52591;BME280;38483;42.620;25.394;2023-02-28T15:39:53;97735.19;;;8.20;91.23
52591;BME280;38483;42.620;25.394;2023-02-28T15:42:22;97737.50;;;8.31;90.59
52591;BME280;38483;42.620;25.394;2023-02-28T15:44:49;97743.56;;;8.30;91.24
52591;BME280;38483;42.620;25.394;2023-02-28T15:47:27;97735.84;;;8.28;91.77
52591;BME280;38483;42.620;25.394;2023-02-28T15:49:58;97739.09;;;8.36;92.00